createdAt,value
2023-05-14T00:00:28.912Z,64.02
2023-05-14T00:02:55.930Z,63.82
2023-05-14T00:05:22.725Z,64.01
2023-05-14T00:07:49.320Z,64.17
2023-05-14T00:10:17.517Z,64.11
2023-05-14T00:12:43.998Z,64.42
2023-05-14T00:15:10.641Z,64.55
2023-05-14T00:17:38.022Z,64.76
2023-05-14T00:20:07.088Z,64.62
2023-05-14T00:22:34.089Z,64.49
2023-05-14T00:25:00.805Z,64.96
2023-05-14T00:27:27.489Z,65.32
2023-05-14T00:29:53.941Z,65.69
2023-05-14T00:32:20.707Z,65.27
2023-05-14T00:34:47.169Z,65.90
2023-05-14T00:37:13.872Z,65.79
2023-05-14T00:39:40.327Z,66.15
2023-05-14T00:42:07.160Z,66.09
2023-05-14T00:44:33.739Z,65.89
2023-05-14T00:47:00.783Z,66.53
2023-05-14T00:49:28.509Z,66.08
2023-05-14T00:51:55.760Z,66.29
2023-05-14T00:54:22.658Z,66.87
2023-05-14T00:56:50.821Z,66.79
2023-05-14T00:59:17.266Z,66.91
2023-05-14T01:01:43.867Z,67.48
2023-05-14T01:04:11.840Z,67.44
2023-05-14T01:06:53.153Z,67.76
2023-05-14T01:09:29.772Z,67.25
2023-05-14T01:12:10.054Z,67.68
2023-05-14T01:14:45.405Z,68.36
2023-05-14T01:17:15.135Z,67.89
2023-05-14T01:19:43.830Z,67.93
2023-05-14T01:22:12.063Z,68.21
2023-05-14T01:24:39.111Z,67.93
2023-05-14T01:27:14.709Z,68.62
2023-05-14T01:29:45.186Z,68.65
2023-05-14T01:32:13.616Z,69.45
2023-05-14T01:34:41.840Z,68.91
2023-05-14T01:37:11.383Z,69.17
2023-05-14T01:39:38.953Z,68.71
2023-05-14T01:42:07.225Z,69.41
2023-05-14T01:44:34.455Z,69.05
2023-05-14T01:47:01.441Z,68.92
2023-05-14T01:49:27.901Z,69.24
2023-05-14T01:51:54.469Z,68.91
2023-05-14T01:54:21.186Z,69.08
2023-05-14T01:56:47.607Z,69.15
2023-05-14T01:59:14.144Z,69.42
2023-05-14T02:01:40.707Z,70.31
2023-05-14T02:04:07.533Z,69.88
2023-05-14T02:06:34.093Z,70.94
2023-05-14T02:09:00.651Z,70.83
2023-05-14T02:11:27.085Z,70.51
2023-05-14T02:13:53.774Z,71.08
2023-05-14T02:16:20.268Z,71.19
2023-05-14T02:18:46.785Z,70.69
2023-05-14T02:21:13.268Z,70.75
2023-05-14T02:23:41.948Z,70.55
2023-05-14T02:26:10.292Z,70.95
2023-05-14T02:28:36.822Z,70.08
2023-05-14T02:31:03.725Z,69.87
2023-05-14T02:33:30.264Z,69.02
2023-05-14T02:35:56.756Z,68.90
2023-05-14T02:38:23.526Z,70.25
2023-05-14T02:40:50.087Z,69.68
2023-05-14T02:43:16.521Z,69.37
2023-05-14T02:45:43.063Z,70.06
2023-05-14T02:48:09.498Z,70.26
2023-05-14T02:50:36.076Z,69.82
2023-05-14T02:53:02.588Z,70.68
2023-05-14T02:55:29.178Z,70.65
2023-05-14T02:57:56.725Z,69.85
2023-05-14T03:00:23.800Z,69.70
2023-05-14T03:02:50.916Z,69.88
2023-05-14T03:05:17.942Z,69.55
2023-05-14T03:07:44.469Z,69.80
2023-05-14T03:10:11.216Z,70.74
2023-05-14T03:12:37.701Z,70.26
2023-05-14T03:15:04.420Z,70.52
2023-05-14T03:17:30.872Z,70.72
2023-05-14T03:19:57.384Z,70.48
2023-05-14T03:22:23.840Z,70.64
2023-05-14T03:24:50.284Z,71.09
2023-05-14T03:27:16.716Z,71.01
2023-05-14T03:29:43.382Z,71.38
2023-05-14T03:32:09.968Z,71.19
2023-05-14T03:34:36.888Z,71.29
2023-05-14T03:37:03.503Z,71.49
2023-05-14T03:39:30.284Z,71.43
2023-05-14T03:41:58.841Z,72.04
2023-05-14T03:44:25.479Z,71.76
2023-05-14T03:46:52.365Z,72.12
2023-05-14T03:49:19.164Z,71.88
2023-05-14T03:51:45.680Z,72.06
2023-05-14T03:54:12.115Z,72.08
2023-05-14T03:56:38.565Z,71.95
2023-05-14T03:59:05.324Z,72.26
2023-05-14T04:01:32.312Z,72.53
2023-05-14T04:03:58.965Z,72.05
2023-05-14T04:06:26.102Z,72.63
2023-05-14T04:08:52.540Z,72.32
2023-05-14T04:11:18.976Z,72.29
2023-05-14T04:13:45.565Z,73.14
2023-05-14T04:16:11.992Z,73.36
2023-05-14T04:18:38.778Z,73.80
2023-05-14T04:21:05.402Z,74.43
2023-05-14T04:23:31.967Z,73.92
2023-05-14T04:25:58.946Z,73.85
2023-05-14T04:28:25.789Z,73.87
2023-05-14T04:30:52.428Z,73.96
2023-05-14T04:33:19.017Z,73.81
2023-05-14T04:35:46.126Z,72.68
2023-05-14T04:38:14.177Z,73.00
2023-05-14T04:40:41.490Z,71.64
2023-05-14T04:43:08.211Z,70.50
2023-05-14T04:45:34.819Z,69.77
2023-05-14T04:48:02.272Z,66.91
2023-05-14T04:50:28.702Z,68.12
2023-05-14T04:52:55.953Z,66.67
2023-05-14T04:55:22.907Z,66.60
2023-05-14T04:57:49.345Z,65.24
2023-05-14T05:00:17.315Z,65.29
2023-05-14T05:02:43.953Z,64.67
2023-05-14T05:05:10.661Z,64.46
2023-05-14T05:07:37.079Z,63.97
2023-05-14T05:10:03.849Z,63.91
2023-05-14T05:12:30.460Z,63.43
2023-05-14T05:14:57.769Z,63.55
2023-05-14T05:17:25.155Z,62.85
2023-05-14T05:19:51.712Z,62.72
2023-05-14T05:22:20.339Z,62.39
2023-05-14T05:24:47.994Z,62.24
2023-05-14T05:27:15.854Z,60.83
2023-05-14T05:29:42.298Z,61.09
2023-05-14T05:32:09.029Z,60.21
2023-05-14T05:34:36.323Z,59.57
2023-05-14T05:37:03.207Z,59.68
2023-05-14T05:39:34.568Z,60.74
2023-05-14T05:42:04.743Z,60.04
2023-05-14T05:44:31.199Z,60.40
2023-05-14T05:46:57.835Z,58.90
2023-05-14T05:49:24.529Z,59.27
2023-05-14T05:51:51.210Z,58.89
2023-05-14T05:54:17.748Z,58.95
2023-05-14T05:56:44.297Z,58.74
2023-05-14T05:59:10.732Z,58.51
2023-05-14T06:01:37.409Z,59.25
2023-05-14T06:04:06.127Z,57.79
2023-05-14T06:06:33.046Z,58.57
2023-05-14T06:08:59.505Z,58.26
2023-05-14T06:11:26.710Z,58.69
2023-05-14T06:13:53.444Z,59.21
2023-05-14T06:16:20.158Z,58.66
2023-05-14T06:18:47.042Z,58.65
2023-05-14T06:21:13.625Z,57.99
2023-05-14T06:23:40.996Z,58.04
2023-05-14T06:26:07.605Z,58.63
2023-05-14T06:28:34.043Z,58.43
2023-05-14T06:31:00.785Z,58.36
2023-05-14T06:33:30.955Z,58.32
2023-05-14T06:36:02.650Z,57.56
2023-05-14T06:38:29.100Z,58.01
2023-05-14T06:40:55.667Z,57.21
2023-05-14T06:43:22.270Z,56.80
2023-05-14T06:45:49.924Z,55.75
2023-05-14T06:48:18.780Z,56.01
2023-05-14T06:50:46.556Z,55.19
2023-05-14T06:53:13.135Z,55.55
2023-05-14T06:55:40.190Z,54.53
2023-05-14T06:58:07.890Z,52.48
2023-05-14T07:00:34.666Z,52.82
2023-05-14T07:03:01.178Z,53.04
2023-05-14T07:05:27.863Z,52.21
2023-05-14T07:07:54.320Z,51.75
2023-05-14T07:10:20.882Z,52.28
2023-05-14T07:12:47.783Z,52.11
2023-05-14T07:15:14.347Z,52.07
2023-05-14T07:17:41.274Z,51.27
2023-05-14T07:20:08.213Z,50.97
2023-05-14T07:22:34.770Z,50.05
2023-05-14T07:25:01.297Z,51.46
2023-05-14T07:27:27.827Z,50.18
2023-05-14T07:29:54.374Z,49.77
2023-05-14T07:32:21.002Z,49.01
2023-05-14T07:34:47.487Z,47.04
2023-05-14T07:37:13.990Z,47.25
2023-05-14T07:39:41.630Z,48.15
2023-05-14T07:42:08.126Z,49.50
2023-05-14T07:44:34.546Z,47.83
2023-05-14T07:47:01.176Z,47.46
2023-05-14T07:49:27.693Z,46.95
2023-05-14T07:51:54.258Z,49.23
2023-05-14T07:54:20.795Z,47.07
2023-05-14T07:56:47.355Z,48.34
2023-05-14T07:59:13.789Z,46.58
2023-05-14T08:01:40.680Z,46.82
2023-05-14T08:04:07.541Z,45.27
2023-05-14T08:06:34.304Z,43.58
2023-05-14T08:09:00.738Z,44.99
2023-05-14T08:11:27.333Z,44.18
2023-05-14T08:13:53.757Z,43.19
2023-05-14T08:16:20.352Z,43.75
2023-05-14T08:18:47.060Z,43.31
2023-05-14T08:21:13.699Z,41.86
2023-05-14T08:23:40.339Z,43.44
2023-05-14T08:26:07.199Z,42.78
2023-05-14T08:28:33.567Z,41.12
2023-05-14T08:31:00.415Z,42.86
2023-05-14T08:33:26.883Z,41.57
2023-05-14T08:35:53.994Z,40.03
2023-05-14T08:38:20.614Z,43.92
2023-05-14T08:41:06.445Z,39.84
2023-05-14T08:43:50.405Z,42.07
2023-05-14T08:46:18.061Z,40.39
2023-05-14T08:48:48.973Z,40.18
2023-05-14T08:51:15.531Z,42.49
2023-05-14T08:53:42.058Z,40.38
2023-05-14T08:56:09.403Z,39.50
2023-05-14T08:58:35.839Z,41.07
2023-05-14T09:01:02.533Z,38.79
2023-05-14T09:03:30.096Z,39.05
2023-05-14T09:05:59.991Z,39.84
2023-05-14T09:08:26.751Z,39.41
2023-05-14T09:10:53.235Z,37.57
2023-05-14T09:13:19.629Z,39.51
2023-05-14T09:15:48.324Z,35.33
2023-05-14T09:18:14.779Z,39.62
2023-05-14T09:20:41.587Z,37.65
2023-05-14T09:23:07.985Z,35.77
2023-05-14T09:25:34.459Z,36.54
2023-05-14T09:28:05.943Z,38.50
2023-05-14T09:30:34.118Z,36.09
2023-05-14T09:33:00.735Z,35.51
2023-05-14T09:35:27.320Z,37.66
2023-05-14T09:37:55.367Z,35.72
2023-05-14T09:40:24.374Z,35.31
2023-05-14T09:42:51.454Z,35.00
2023-05-14T09:45:18.140Z,34.55
2023-05-14T09:47:45.115Z,35.96
2023-05-14T09:50:12.354Z,34.04
2023-05-14T09:52:39.405Z,35.32
2023-05-14T09:55:06.581Z,33.80
2023-05-14T09:57:33.594Z,33.51
2023-05-14T10:00:00.386Z,35.18
2023-05-14T10:02:36.779Z,34.77
2023-05-14T10:05:06.380Z,35.03
2023-05-14T10:07:42.375Z,32.27
2023-05-14T10:10:13.016Z,34.62
2023-05-14T10:12:40.572Z,32.96
2023-05-14T10:15:15.394Z,31.71
2023-05-14T10:17:47.512Z,31.61
2023-05-14T10:20:15.622Z,33.15
2023-05-14T10:22:42.129Z,34.52
2023-05-14T10:25:09.574Z,32.36
2023-05-14T10:27:36.501Z,33.15
2023-05-14T10:30:06.402Z,31.45
2023-05-14T10:32:33.128Z,32.48
2023-05-14T10:35:01.633Z,33.01
2023-05-14T10:37:29.979Z,32.07
2023-05-14T10:40:02.523Z,31.98
2023-05-14T10:42:35.740Z,32.55
2023-05-14T10:45:07.244Z,31.40
2023-05-14T10:47:38.686Z,34.27
2023-05-14T10:50:08.004Z,31.42
2023-05-14T10:52:35.396Z,30.51
2023-05-14T10:55:04.210Z,33.22
2023-05-14T10:57:32.089Z,31.03
2023-05-14T11:00:00.288Z,30.00
2023-05-14T11:02:29.360Z,31.40
2023-05-14T11:04:59.341Z,30.21
2023-05-14T11:07:45.906Z,28.87
2023-05-14T11:10:14.230Z,30.47
2023-05-14T11:12:43.087Z,29.28
2023-05-14T11:15:17.763Z,30.48
2023-05-14T11:17:45.453Z,28.57
2023-05-14T11:20:12.728Z,28.31
2023-05-14T11:22:40.994Z,29.02
2023-05-14T11:25:08.665Z,30.79
2023-05-14T11:27:36.634Z,29.59
2023-05-14T11:30:04.273Z,28.72
2023-05-14T11:32:33.923Z,30.24
2023-05-14T11:35:00.564Z,29.80
2023-05-14T11:37:27.020Z,31.18
2023-05-14T11:39:55.667Z,31.50
2023-05-14T11:42:22.504Z,32.36
2023-05-14T11:44:51.581Z,32.54
2023-05-14T11:47:19.630Z,34.40
2023-05-14T11:49:46.620Z,34.42
2023-05-14T11:52:15.335Z,34.11
2023-05-14T11:54:44.099Z,31.08
2023-05-14T11:57:19.439Z,30.96
2023-05-14T11:59:48.110Z,29.81
2023-05-14T12:02:17.584Z,30.64
2023-05-14T12:04:49.210Z,29.88
2023-05-14T12:07:16.385Z,29.96
2023-05-14T12:09:49.090Z,31.02
2023-05-14T12:12:19.077Z,32.47
2023-05-14T12:14:46.663Z,31.59
2023-05-14T12:17:18.031Z,30.75
2023-05-14T12:19:45.952Z,31.51
2023-05-14T12:22:15.459Z,31.67
2023-05-14T12:24:43.622Z,30.98
2023-05-14T12:27:10.694Z,29.65
2023-05-14T12:29:41.160Z,29.06
2023-05-14T12:32:10.059Z,29.92
2023-05-14T12:34:37.980Z,26.60
2023-05-14T12:37:05.803Z,27.80
2023-05-14T12:39:33.734Z,29.40
2023-05-14T12:42:00.449Z,30.82
2023-05-14T12:44:26.972Z,27.24
2023-05-14T12:46:54.013Z,24.72
2023-05-14T12:49:20.534Z,27.60
2023-05-14T12:51:47.151Z,26.69
2023-05-14T12:54:15.792Z,26.91
2023-05-14T12:56:42.657Z,26.05
2023-05-14T12:59:09.539Z,26.35
2023-05-14T13:01:37.625Z,27.53
2023-05-14T13:04:05.421Z,26.81
2023-05-14T13:06:32.637Z,26.56
2023-05-14T13:09:01.652Z,23.98
2023-05-14T13:11:30.335Z,24.92
2023-05-14T13:13:56.830Z,24.61
2023-05-14T13:16:23.477Z,25.75
2023-05-14T13:18:50.042Z,24.96
2023-05-14T13:21:16.569Z,25.73
2023-05-14T13:23:42.972Z,24.89
2023-05-14T13:26:09.812Z,24.14
2023-05-14T13:28:36.200Z,25.25
2023-05-14T13:31:11.828Z,24.56
2023-05-14T13:33:43.300Z,24.99
2023-05-14T13:36:11.770Z,25.07
2023-05-14T13:38:38.356Z,26.24
2023-05-14T13:41:05.750Z,25.42
2023-05-14T13:43:34.316Z,24.13
2023-05-14T13:46:01.548Z,24.01
2023-05-14T13:48:28.087Z,23.04
2023-05-14T13:50:55.105Z,23.88
2023-05-14T13:53:23.051Z,24.87
2023-05-14T13:55:50.614Z,23.16
2023-05-14T13:58:17.252Z,23.37
2023-05-14T14:00:43.812Z,24.88
2023-05-14T14:03:10.372Z,23.38
2023-05-14T14:05:37.059Z,24.06
2023-05-14T14:08:17.801Z,21.57
2023-05-14T14:10:49.958Z,24.81
2023-05-14T14:13:16.478Z,24.02
2023-05-14T14:15:43.712Z,23.21
2023-05-14T14:18:10.252Z,22.68
2023-05-14T14:20:37.027Z,25.53
2023-05-14T14:23:03.430Z,24.21
2023-05-14T14:25:31.064Z,24.55
2023-05-14T14:27:57.498Z,26.21
2023-05-14T14:30:24.231Z,24.48
2023-05-14T14:32:50.853Z,24.24
2023-05-14T14:35:19.007Z,24.97
2023-05-14T14:37:49.115Z,22.78
2023-05-14T14:40:16.719Z,21.99
2023-05-14T14:42:43.742Z,21.58
2023-05-14T14:45:11.289Z,24.76
2023-05-14T14:47:37.735Z,22.42
2023-05-14T14:50:05.010Z,23.50
2023-05-14T14:52:31.430Z,23.18
2023-05-14T14:54:58.197Z,22.63
2023-05-14T14:57:24.711Z,22.68
2023-05-14T14:59:51.279Z,21.85
2023-05-14T15:02:17.710Z,22.73
2023-05-14T15:04:44.377Z,21.49
2023-05-14T15:07:11.117Z,20.99
2023-05-14T15:09:37.621Z,20.63
2023-05-14T15:12:04.410Z,21.11
2023-05-14T15:14:31.016Z,22.54
2023-05-14T15:16:57.492Z,22.83
2023-05-14T15:19:23.999Z,22.67
2023-05-14T15:21:50.478Z,23.32
2023-05-14T15:24:16.958Z,23.32
2023-05-14T15:26:43.384Z,21.59
2023-05-14T15:29:09.912Z,23.80
2023-05-14T15:31:36.482Z,23.34
2023-05-14T15:34:03.670Z,23.25
2023-05-14T15:36:30.776Z,23.13
2023-05-14T15:38:57.268Z,22.82
2023-05-14T15:41:25.422Z,25.24
2023-05-14T15:43:52.028Z,23.24
2023-05-14T15:46:18.537Z,24.10
2023-05-14T15:48:45.511Z,23.55
2023-05-14T15:51:12.590Z,23.71
2023-05-14T15:53:39.363Z,23.99
2023-05-14T15:56:06.125Z,23.77
2023-05-14T15:58:32.581Z,25.31
2023-05-14T16:00:59.016Z,24.78
2023-05-14T16:03:25.776Z,26.68
2023-05-14T16:05:52.385Z,26.10
2023-05-14T16:08:18.891Z,25.06
2023-05-14T16:10:45.389Z,25.42
2023-05-14T16:13:11.973Z,25.08
2023-05-14T16:15:39.739Z,25.02
2023-05-14T16:18:06.423Z,25.86
2023-05-14T16:20:32.833Z,26.83
2023-05-14T16:22:59.512Z,26.39
2023-05-14T16:25:26.103Z,26.72
2023-05-14T16:27:52.637Z,26.22
2023-05-14T16:30:19.039Z,26.74
2023-05-14T16:32:49.327Z,27.01
2023-05-14T16:35:16.752Z,27.83
2023-05-14T16:37:43.408Z,27.91
2023-05-14T16:40:11.713Z,26.43
2023-05-14T16:42:38.749Z,26.62
2023-05-14T16:45:05.566Z,26.57
2023-05-14T16:47:32.057Z,26.94
2023-05-14T16:49:58.751Z,27.41
2023-05-14T16:52:25.151Z,29.47
2023-05-14T16:54:51.710Z,28.22
2023-05-14T16:57:18.200Z,29.82
2023-05-14T16:59:44.861Z,29.25
2023-05-14T17:02:11.276Z,29.98
2023-05-14T17:04:41.825Z,29.71
2023-05-14T17:07:08.400Z,32.37
2023-05-14T17:09:35.153Z,31.97
2023-05-14T17:12:01.610Z,31.13
2023-05-14T17:14:28.082Z,31.82
2023-05-14T17:16:54.744Z,29.46
2023-05-14T17:19:21.442Z,28.80
2023-05-14T17:21:47.831Z,29.87
2023-05-14T17:24:14.271Z,31.01
2023-05-14T17:26:40.696Z,30.51
2023-05-14T17:29:07.371Z,31.09
2023-05-14T17:31:34.351Z,31.12
2023-05-14T17:34:00.982Z,31.93
2023-05-14T17:36:28.496Z,34.14
2023-05-14T17:38:55.316Z,33.94
2023-05-14T17:41:21.741Z,33.55
2023-05-14T17:43:48.328Z,36.08
2023-05-14T17:46:14.775Z,34.29
2023-05-14T17:48:41.415Z,35.17
2023-05-14T17:51:07.831Z,35.52
2023-05-14T17:53:34.292Z,35.89
2023-05-14T17:56:00.864Z,37.13
2023-05-14T17:58:27.636Z,35.34
2023-05-14T18:00:54.099Z,36.79
2023-05-14T18:03:20.701Z,36.78
2023-05-14T18:05:47.382Z,37.06
2023-05-14T18:08:14.905Z,36.23
2023-05-14T18:10:41.327Z,37.00
2023-05-14T18:13:07.807Z,37.91
2023-05-14T18:15:36.134Z,36.95
2023-05-14T18:18:02.970Z,38.17
2023-05-14T18:20:29.388Z,38.13
2023-05-14T18:22:55.828Z,38.28
2023-05-14T18:25:22.352Z,38.03
2023-05-14T18:27:49.148Z,38.37
2023-05-14T18:30:15.878Z,39.90
2023-05-14T18:32:44.308Z,39.46
2023-05-14T18:35:12.223Z,40.23
2023-05-14T18:37:38.750Z,39.94
2023-05-14T18:40:06.940Z,40.03
2023-05-14T18:42:34.049Z,41.09
2023-05-14T18:45:00.782Z,40.87
2023-05-14T18:47:27.456Z,42.10
2023-05-14T18:49:55.822Z,40.33
2023-05-14T18:52:22.796Z,41.01
2023-05-14T18:54:50.873Z,41.26
2023-05-14T18:57:17.570Z,41.98
2023-05-14T18:59:44.001Z,42.82
2023-05-14T19:02:10.800Z,43.66
2023-05-14T19:04:50.621Z,43.15
2023-05-14T19:07:18.087Z,44.32
2023-05-14T19:09:44.490Z,45.39
2023-05-14T19:12:10.948Z,45.16
2023-05-14T19:14:37.556Z,42.91
2023-05-14T19:17:04.653Z,44.76
2023-05-14T19:19:31.357Z,43.58
2023-05-14T19:21:57.744Z,42.84
2023-05-14T19:24:24.703Z,43.55
2023-05-14T19:26:51.251Z,43.71
2023-05-14T19:29:17.713Z,43.23
2023-05-14T19:31:44.200Z,45.74
2023-05-14T19:34:10.904Z,45.17
2023-05-14T19:36:37.340Z,46.02
2023-05-14T19:39:04.116Z,46.43
2023-05-14T19:41:30.653Z,47.01
2023-05-14T19:43:57.115Z,46.61
2023-05-14T19:46:23.635Z,48.16
2023-05-14T19:48:50.321Z,48.61
2023-05-14T19:51:16.921Z,48.06
2023-05-14T19:53:43.551Z,48.67
2023-05-14T19:56:10.061Z,48.48
2023-05-14T19:58:36.662Z,49.54
2023-05-14T20:01:03.202Z,49.37
2023-05-14T20:03:30.079Z,49.26
2023-05-14T20:05:56.665Z,49.48
2023-05-14T20:08:23.176Z,50.18
2023-05-14T20:10:49.814Z,50.58
2023-05-14T20:13:16.307Z,50.51
2023-05-14T20:15:43.168Z,50.74
2023-05-14T20:18:09.715Z,50.82
2023-05-14T20:20:36.717Z,50.82
2023-05-14T20:23:03.538Z,51.31
2023-05-14T20:25:30.283Z,51.49
2023-05-14T20:27:56.954Z,51.76
2023-05-14T20:30:23.974Z,51.67
2023-05-14T20:32:51.216Z,51.45
2023-05-14T20:35:17.969Z,52.01
2023-05-14T20:37:44.569Z,51.45
2023-05-14T20:40:14.041Z,51.89
2023-05-14T20:42:40.623Z,52.55
2023-05-14T20:45:07.739Z,52.73
2023-05-14T20:47:35.608Z,53.11
2023-05-14T20:50:02.264Z,53.46
2023-05-14T20:52:28.806Z,53.43
2023-05-14T20:54:55.430Z,53.35
2023-05-14T20:57:22.667Z,54.09
2023-05-14T20:59:49.138Z,54.12
2023-05-14T21:02:15.799Z,54.43
2023-05-14T21:04:42.849Z,54.49
2023-05-14T21:07:09.428Z,55.05
2023-05-14T21:09:35.837Z,55.84
2023-05-14T21:12:02.270Z,56.05
2023-05-14T21:14:28.726Z,56.29
2023-05-14T21:16:55.376Z,56.52
2023-05-14T21:19:22.848Z,56.84
2023-05-14T21:21:49.449Z,57.10
2023-05-14T21:24:16.750Z,57.11
2023-05-14T21:26:43.640Z,57.26
2023-05-14T21:29:10.981Z,57.59
2023-05-14T21:31:37.480Z,57.86
2023-05-14T21:34:03.940Z,58.22
2023-05-14T21:36:31.166Z,58.64
2023-05-14T21:38:57.585Z,58.70
2023-05-14T21:41:24.044Z,59.20
2023-05-14T21:43:50.554Z,59.16
2023-05-14T21:46:17.027Z,59.64
2023-05-14T21:48:43.598Z,59.60
2023-05-14T21:51:11.321Z,59.44
2023-05-14T21:53:37.737Z,59.71
2023-05-14T21:56:04.668Z,59.34
2023-05-14T21:58:31.090Z,60.32
2023-05-14T22:00:57.922Z,60.56
2023-05-14T22:03:24.520Z,60.22
2023-05-14T22:05:51.663Z,60.16
2023-05-14T22:08:18.080Z,60.16
2023-05-14T22:10:45.375Z,60.91
2023-05-14T22:13:11.773Z,61.32
2023-05-14T22:15:38.461Z,61.22
2023-05-14T22:18:04.974Z,62.23
2023-05-14T22:20:31.556Z,62.05
2023-05-14T22:22:58.103Z,62.69
2023-05-14T22:25:24.985Z,62.30
2023-05-14T22:27:51.682Z,61.89
2023-05-14T22:30:18.310Z,62.26
2023-05-14T22:32:44.824Z,62.82
2023-05-14T22:35:11.616Z,62.78
2023-05-14T22:37:38.140Z,62.81
2023-05-14T22:40:08.548Z,63.47
2023-05-14T22:42:34.969Z,63.47
2023-05-14T22:45:01.635Z,63.30
2023-05-14T22:47:28.111Z,63.54
2023-05-14T22:49:54.698Z,63.52
2023-05-14T22:52:21.110Z,63.73
2023-05-14T22:54:50.836Z,64.22
2023-05-14T22:57:17.804Z,64.45
2023-05-14T22:59:44.268Z,64.54
2023-05-14T23:02:10.930Z,64.98
2023-05-14T23:04:37.514Z,64.88
2023-05-14T23:07:04.172Z,65.01
2023-05-14T23:09:30.787Z,65.37
2023-05-14T23:11:57.235Z,65.46
2023-05-14T23:14:23.908Z,65.82
2023-05-14T23:16:50.423Z,66.17
2023-05-14T23:19:17.285Z,65.96
2023-05-14T23:21:43.822Z,66.19
2023-05-14T23:24:10.374Z,66.15
2023-05-14T23:26:36.954Z,66.02
2023-05-14T23:29:03.515Z,66.76
2023-05-14T23:31:30.295Z,66.48
2023-05-14T23:33:56.975Z,66.64
2023-05-14T23:36:23.572Z,67.18
2023-05-14T23:38:50.232Z,67.33
2023-05-14T23:41:16.731Z,67.30
2023-05-14T23:43:43.134Z,67.60
2023-05-14T23:46:10.325Z,67.42
2023-05-14T23:48:37.002Z,67.61
2023-05-14T23:51:03.907Z,67.42
2023-05-14T23:53:30.318Z,67.47
2023-05-14T23:55:57.049Z,68.19
2023-05-14T23:58:23.790Z,67.92
